Huvudsida
METAR-TAF:

METAR-TAF

Flygplatser :

Svolværs flygplats. Helle

Svolvær, Norge

latitud: 68-15N, longitud: 014-40E, höjd: 0 m

Aktuellt väderrapport

Denna rapport gjordes för 37 minuter sedan, klockan 18:20 UTC
Vind 26 kt från syd/sydväst
Temperatur 5°C
Fuktighet 93%
Tryck 1026 hPa
Sikt 10 km eller mer
Spridda moln på en höjd av 1200 ft
Brutna moln på en höjd av 2000 ft
lätta regnskurar

METAR: ENSH 131820Z 20026KT 9999 -SHRA SCT012 BKN020 05/04 Q1026 RMK WIND 150FT VRB18G31KT

Tid: 19:57 (18:57 UTC)

Väderprognos

Denna rapport gjordes för 1 timme och 57 minuter sedan, klockan 17:00 UTC
Prognos gäller från 13 kl. 18 UTC till 13 kl. 22 UTC
Vind 25 kt från syd/sydväst
Sikt 10 km eller mer
Få moln på en höjd av 1000 ft
Brutna moln på en höjd av 2000 ft
lätta regnskurar
Temporärt
från 13 kl. 18 UTC till 13 kl. 22 UTC
Brutna moln på en höjd av 1000 ft

TAF: ENSH 131700Z 1318/1322 21025KT 9999 -SHRA FEW010 BKN020 TEMPO 1318/1322 BKN010

Aktuella väderrapporter och prognoser från 4000 flygplatser (METAR- och TAF-rapporter).

De tillgängliga stationerna syns som gula och röda prickar på kartan.

För musen över prickarna för att se namnen på stationerna.

Klicka sedan för att få väderrapporter och prognoser.

För att ändra kartan: Klicka på de gröna knapparna med ett svart kors på för att zooma in; den gröna knappen med ett streck på för att zooma ut; eller på de gröna pilarna för angränsande kartor.


METAR-TAF: